METAR Reports From Nearby Airports

 

KLUD - Decatur, Texas, USA
Distance from Wildwood: ESE 5mi, 8km
Updated: Feb 08, 2023 5:15am
Mist, Overcast
Mist, Overcast
 Wind from NNE
Wind: NNE 9 mph , 15 km/h
Temperature: 45°F , 7°C
Wind Chill: 40°F , 4°C
Dew Point: 43°F , 6°C
Humidity: 93%
Barometer: 29.96 inHg , 1014.6 hPa
Summary: Mist
Clouds: Overcast
Visibility: 2 miles , 3 km
Cloud details: Overcast 400 ft
2023/02/08 11:15 KLUD 081115Z AUTO 02008KT 2SM BR OVC004 07/06 A2996 RMK AO2 T00650060
KXBP - Bridgeport, Texas, USA
Distance from Wildwood: WSW 11mi, 18km
Updated: Feb 08, 2023 5:15am

 Wind from NNW
Wind: NNW 9 mph , 15 km/h
Visibility: 7 miles , 11 km
2023/02/08 11:15 KXBP 081115Z AUTO 34008KT 7SM -VCTSRA OVC005 A3001 RMK AO2 LTG DSNT E THRU SW
 
K0F2 - Bowie, Texas, USA
Distance from Wildwood: NNW 24mi, 39km
Updated: Feb 08, 2023 5:15am
Mist, Overcast
Mist, Overcast
 Wind from N
Wind: N 8 mph , 13 km/h
Temperature: 43°F , 6°C
Wind Chill: 38°F , 3°C
Dew Point: 43°F , 6°C
Humidity: 100%
Barometer: 30.00 inHg , 1015.9 hPa
Summary: Mist
Clouds: Overcast
Visibility: 4 miles , 6 km
Cloud details: Overcast 300 ft
2023/02/08 11:15 K0F2 081115Z AUTO 01007KT 4SM BR OVC003 06/06 A3000 RMK AO2 T00600055
KDTO - Denton, Texas, USA
Distance from Wildwood: E 27mi, 44km
Updated: Feb 08, 2023 4:53am
Overcast
Overcast
 Wind from N
Wind: N 12 mph , 19 km/h
Temperature: 45°F , 7°C
Wind Chill: 39°F , 4°C
Dew Point: 43°F , 6°C
Humidity: 93%
Barometer: 29.96 inHg , 1014.6 hPa
Clouds: Overcast
Visibility: 10 miles , 16 km
Cloud details: Overcast 700 ft
2023/02/08 10:53 KDTO 081053Z AUTO 36010KT 10SM OVC007 07/06 A2996 RMK AO2 LTG DSNT E-SW SLP143 T00720061
 
KAFW - Ft Worth/Allianc, Texas, USA
Distance from Wildwood: SE 29mi, 46km
Updated: Feb 08, 2023 4:53am
Light thunderstorm, Rain, Overcast
Light thunderstorm, Rain, Overcast
 Wind from N
Wind: N 12 mph , 19 km/h
Temperature: 45°F , 7°C
Wind Chill: 39°F , 4°C
Dew Point: 45°F , 7°C
Humidity: 100%
Barometer: 29.96 inHg , 1014.6 hPa
Summary: Light thunderstorm, Rain
Clouds: Overcast
Visibility: 10 miles , 16 km
Cloud details: Overcast 600 ft
2023/02/08 10:53 KAFW 081053Z 01010KT 10SM -TSRA OVC006CB 07/07 A2996 RMK AO2 LTG DSNT E-SW RAB52 TSE18B31 SLP148 FRQ LTGICCG ALQDS TS ALQDS MOV NE P0000 T00720067
KFTW - Fort Worth, Texas, USA
Distance from Wildwood: SSE 34mi, 55km
Updated: Feb 08, 2023 5:02am
Heavy thunderstorm, Rain, Mist, Overcast
Heavy thunderstorm, Rain, Mist, Overcast
 Wind from NW
Wind: NW 7 mph , 11 km/h
Temperature: 45°F , 7°C
Wind Chill: 41°F , 5°C
Dew Point: 45°F , 7°C
Humidity: 100%
Barometer: 30.00 inHg , 1015.9 hPa
Summary: Heavy thunderstorm, Rain, Mist
Clouds: Overcast
Visibility: 2 miles , 3 km
Cloud details: Overcast 600 ft
2023/02/08 11:02 KFTW 081102Z 32006KT 2SM +TSRA BR OVC006 07/07 A3000 RMK AO2 LTG DSNT ALQDS PRESRR P0007 T00670067
 
KNFW - Fort Worth Nas, Texas, USA
Distance from Wildwood: SSE 36mi, 58km
Updated: Feb 08, 2023 4:52am
Heavy rain, Overcast
Heavy rain, Overcast
 Wind from varies
Wind: varies 5 mph , 7 km/h
Temperature: 45°F , 7°C
Wind Chill: 42°F , 6°C
Dew Point: 43°F , 6°C
Humidity: 93%
Barometer: 30.01 inHg , 1016.3 hPa
Summary: Heavy Rain
Clouds: Overcast
Cloud details: Overcast 600 ft
2023/02/08 10:52 KNFW 081052Z AUTO VRB04KT +RA OVC006 07/06 A3001 RMK AO2 RAB08 PRESRR SLP144 P0004 T00670061 TSNO CHINO S VISNO S $
KGLE - Gainesville, Texas, USA
Distance from Wildwood: NE 38mi, 61km
Updated: Feb 08, 2023 4:55am
Light rain, Overcast
Light rain, Overcast
 Wind from N
Wind: N 9 mph , 15 km/h
Temperature: 45°F , 7°C
Wind Chill: 40°F , 4°C
Dew Point: 45°F , 7°C
Humidity: 100%
Barometer: 30.00 inHg , 1015.9 hPa
Summary: Light Rain
Clouds: Overcast
Visibility: 4 miles , 6 km
Cloud details: Overcast 500 ft
2023/02/08 10:55 KGLE 081055Z AUTO 01008KT 4SM -RA OVC005 07/07 A3000 RMK AO2 P0004 T00650065
 
KMWL - Mineral Wells, Texas, USA
Distance from Wildwood: SW 41mi, 65km
Updated: Feb 08, 2023 5:04am
Nearby thunderstorm, Heavy rain, Mist, Overcast
Nearby thunderstorm, Heavy rain, Mist, Overcast
 Wind from NNW
Wind: NNW 8 mph , 13 km/h
Temperature: 43°F , 6°C
Wind Chill: 38°F , 3°C
Dew Point: 41°F , 5°C
Humidity: 93%
Barometer: 29.99 inHg , 1015.6 hPa
Summary: Nearby thunderstorm, Heavy rain, Mist
Clouds: Overcast
Visibility: 2 1/2 miles , 4 km
Cloud details: Overcast 500 ft
2023/02/08 11:04 KMWL 081104Z AUTO 34007KT 2 1/2SM VCTS +RA BR OVC005 06/05 A2999 RMK AO2 LTG DSNT ALQDS TSE03 P0007 T00610050
KDFW - Dallas/Ft Worth, Texas, USA
Distance from Wildwood: ESE 45mi, 73km
Updated: Feb 08, 2023 5:12am
Light thunderstorm, Rain, Mist, Overcast
Light thunderstorm, Rain, Mist, Overcast
 Wind from N
Wind: N 9 mph , 15 km/h
Temperature: 45°F , 7°C
Wind Chill: 40°F , 4°C
Dew Point: 45°F , 7°C
Humidity: 100%
Barometer: 29.95 inHg , 1014.2 hPa
Summary: Light thunderstorm, Rain, Mist
Clouds: Overcast
Visibility: 3 miles , 5 km
Cloud details: Overcast 600 ft
2023/02/08 11:12 KDFW 081112Z 36008KT 3SM -TSRA BR OVC006CB 07/07 A2995 RMK AO2 LTG DSNT ALQDS FRQ LTGICCG ALQDS TS ALQDS MOV NE P0023 T00720067